Terminal Aerodrome Forecast
Issued by NWS Omaha/Valley, NE

Home | Current Version | Previous Version | Graphics & Text | Print | Product List | Glossary On
Versions: 1 2 3 4 5 6 7 8 9 10 11 12 13 14 15 16 17 18 19 20 21 22 23
000
FTUS43 KOAX 221120
TAFOFK
TAF
KOFK 221120Z 2212/2312 16013KT P6SM SCT050 BKN200
     FM221500 17015G24KT P6SM BKN050 OVC150
     FM221900 18015KT P6SM OVC040
      TEMPO 2219/2221 5SM -SHRA
     FM222100 20010KT 6SM -SHRA OVC035
      TEMPO 2221/2301 3SM TSRA SCT015 OVC025CB
     FM230200 24005KT P6SM SCT035 BKN250=

USA.gov is the U.S. government's official web portal to all federal, state and local government web resources and services.